createdAt,value
2023-01-09T00:04:00.776Z,96449.81
2023-01-09T00:08:52.434Z,96465.09
2023-01-09T00:13:44.380Z,96453.81
2023-01-09T00:18:37.461Z,96465.28
2023-01-09T00:23:29.190Z,96466.63
2023-01-09T00:28:20.889Z,96464.47
2023-01-09T00:33:13.175Z,96477.28
2023-01-09T00:38:04.960Z,96472.94
2023-01-09T00:42:57.908Z,96485.22
2023-01-09T00:47:52.892Z,96495.63
2023-01-09T00:52:47.103Z,96504.16
2023-01-09T00:57:39.127Z,96509.47
2023-01-09T01:02:31.029Z,96521.47
2023-01-09T01:07:43.341Z,96524.91
2023-01-09T01:12:35.053Z,96532.41
2023-01-09T01:17:26.697Z,96538.75
2023-01-09T01:22:18.506Z,96546.28
2023-01-09T01:27:10.455Z,96563.16
2023-01-09T01:32:02.116Z,96562.66
2023-01-09T01:36:54.046Z,96571.03
2023-01-09T01:41:45.677Z,96578.81
2023-01-09T01:46:37.361Z,96587.88
2023-01-09T01:51:32.012Z,96587.41
2023-01-09T01:56:30.560Z,96594.94
2023-01-09T02:01:24.770Z,96602.22
2023-01-09T02:06:16.641Z,96610.91
2023-01-09T02:11:09.007Z,96625.72
2023-01-09T02:16:03.604Z,96631.13
2023-01-09T02:21:00.720Z,96634.69
2023-01-09T02:26:13.476Z,96640.38
2023-01-09T02:31:15.502Z,96658.88
2023-01-09T02:36:29.145Z,96668.22
2023-01-09T02:41:53.075Z,96676.25
2023-01-09T02:46:44.870Z,96674.91
2023-01-09T02:51:36.642Z,96687.31
2023-01-09T02:56:37.350Z,96697.84
2023-01-09T03:01:52.416Z,96711.28
2023-01-09T03:06:54.976Z,96718.59
2023-01-09T03:12:01.126Z,96710.63
2023-01-09T03:17:02.637Z,96709.88
2023-01-09T03:21:56.395Z,96721.72
2023-01-09T03:26:48.214Z,96720.91
2023-01-09T03:31:39.970Z,96721.97
2023-01-09T03:36:31.716Z,96725.47
2023-01-09T03:41:23.478Z,96720.03
2023-01-09T03:46:18.075Z,96736.31
2023-01-09T03:51:10.320Z,96731.94
2023-01-09T03:56:01.976Z,96739.69
2023-01-09T04:00:59.835Z,96742.84
2023-01-09T04:05:51.698Z,96746.28
2023-01-09T04:10:47.672Z,96751.28
2023-01-09T04:15:39.468Z,96751.53
2023-01-09T04:20:32.052Z,96760.16
2023-01-09T04:25:23.755Z,96767.13
2023-01-09T04:30:15.462Z,96781.91
2023-01-09T04:35:07.917Z,96779.47
2023-01-09T04:39:59.707Z,96771.75
2023-01-09T04:44:54.228Z,96785.41
2023-01-09T04:49:45.898Z,96801.72
2023-01-09T04:54:39.547Z,96797.44
2023-01-09T04:59:31.323Z,96794.19
2023-01-09T05:04:23.103Z,96796.06
2023-01-09T05:09:14.756Z,96813.19
2023-01-09T05:14:06.438Z,96818.88
2023-01-09T05:18:58.387Z,96825.59
2023-01-09T05:23:50.352Z,96830.22
2023-01-09T05:28:42.097Z,96828.94
2023-01-09T05:33:33.814Z,96839.66
2023-01-09T05:38:25.618Z,96846.31
2023-01-09T05:43:17.411Z,96839.84
2023-01-09T05:48:09.086Z,96856.97
2023-01-09T05:53:00.783Z,96854.53
2023-01-09T05:57:52.437Z,96857.22
2023-01-09T06:02:44.169Z,96864.69
2023-01-09T06:07:39.361Z,96889.63
2023-01-09T06:12:31.147Z,96904.41
2023-01-09T06:17:22.883Z,96912.78
2023-01-09T06:22:14.529Z,96928.94
2023-01-09T06:27:06.813Z,96926.34
2023-01-09T06:31:58.623Z,96944.03
2023-01-09T06:36:50.234Z,96954.28
2023-01-09T06:41:41.983Z,96971.28
2023-01-09T06:46:33.662Z,96975.66
2023-01-09T06:51:25.446Z,96982.19
2023-01-09T06:56:17.153Z,96990.06
2023-01-09T07:01:09.410Z,97001.94
2023-01-09T07:06:01.139Z,97023.47
2023-01-09T07:10:52.852Z,97023.22
2023-01-09T07:15:44.895Z,97037.31
2023-01-09T07:20:39.816Z,97045.91
2023-01-09T07:25:31.503Z,97063.41
2023-01-09T07:30:23.385Z,97068.28
2023-01-09T07:35:15.199Z,97088.44
2023-01-09T07:40:07.687Z,97101.63
2023-01-09T07:44:59.379Z,97104.88
2023-01-09T07:49:51.103Z,97106.25
2023-01-09T07:54:43.000Z,97115.69
2023-01-09T07:59:34.733Z,97125.88
2023-01-09T08:04:26.431Z,97150.59
2023-01-09T08:09:18.827Z,97170.91
2023-01-09T08:14:10.431Z,97186.75
2023-01-09T08:19:02.077Z,97202.88
2023-01-09T08:23:53.808Z,97216.22
2023-01-09T08:28:46.264Z,97237.19
2023-01-09T08:33:40.408Z,97256.53
2023-01-09T08:38:32.274Z,97268.22
2023-01-09T08:43:42.577Z,97280.91
2023-01-09T08:48:34.289Z,97301.19
2023-01-09T08:53:26.025Z,97308.78
2023-01-09T08:58:17.791Z,97321.47
2023-01-09T09:03:11.829Z,97335.59
2023-01-09T09:08:04.329Z,97336.00
2023-01-09T09:12:58.350Z,97354.09
2023-01-09T09:18:04.358Z,97367.38
2023-01-09T09:22:56.217Z,97380.19
2023-01-09T09:27:48.070Z,97385.41
2023-01-09T09:32:40.552Z,97404.50
2023-01-09T09:37:32.564Z,97419.63
2023-01-09T09:42:48.411Z,97421.50
2023-01-09T09:47:45.883Z,97423.81
2023-01-09T09:52:59.910Z,97445.38
2023-01-09T09:57:52.337Z,97452.81
2023-01-09T10:03:06.717Z,97466.59
2023-01-09T10:08:15.781Z,97470.94
2023-01-09T10:13:27.770Z,97493.44
2023-01-09T10:18:42.823Z,97517.50
2023-01-09T10:23:54.620Z,97511.16
2023-01-09T10:29:38.724Z,97529.75
2023-01-09T10:34:46.972Z,97542.84
2023-01-09T10:39:44.137Z,97547.78
2023-01-09T10:45:03.449Z,97566.91
2023-01-09T10:49:56.921Z,97576.28
2023-01-09T10:54:55.528Z,97583.06
2023-01-09T10:59:47.212Z,97584.53
2023-01-09T11:04:40.314Z,97589.38
2023-01-09T11:09:55.296Z,97589.47
2023-01-09T11:14:47.007Z,97611.28
2023-01-09T11:19:38.893Z,97615.66
2023-01-09T11:24:31.817Z,97629.22
2023-01-09T11:29:26.638Z,97646.94
2023-01-09T11:34:21.098Z,97645.66
2023-01-09T11:39:25.495Z,97645.31
2023-01-09T11:44:17.336Z,97655.06
2023-01-09T11:49:15.329Z,97646.66
2023-01-09T11:54:16.368Z,97659.97
2023-01-09T11:59:21.334Z,97658.72
2023-01-09T12:04:25.397Z,97658.72
2023-01-09T12:09:28.296Z,97673.19
2023-01-09T12:14:19.875Z,97685.41
2023-01-09T12:19:23.703Z,97701.94
2023-01-09T12:24:24.352Z,97707.78
2023-01-09T12:29:19.038Z,97712.22
2023-01-09T12:34:28.887Z,97718.94
2023-01-09T12:39:54.478Z,97731.25
2023-01-09T12:45:07.341Z,97736.22
2023-01-09T12:50:07.767Z,97751.97
2023-01-09T12:55:30.349Z,97750.94
2023-01-09T13:00:22.048Z,97768.28
2023-01-09T13:05:24.505Z,97767.56
2023-01-09T13:10:40.945Z,97759.41
2023-01-09T13:15:40.116Z,97771.84
2023-01-09T13:21:07.265Z,97780.81
2023-01-09T13:26:04.411Z,97794.53
2023-01-09T13:31:08.830Z,97801.03
2023-01-09T13:36:03.483Z,97808.53
2023-01-09T13:41:35.662Z,97830.03
2023-01-09T13:46:45.578Z,97838.06
2023-01-09T13:51:58.345Z,97845.00
2023-01-09T13:57:17.880Z,97860.13
2023-01-09T14:02:35.368Z,97858.78
2023-01-09T14:07:33.050Z,97885.94
2023-01-09T14:12:26.547Z,97885.84
2023-01-09T14:17:34.706Z,97898.97
2023-01-09T14:22:42.344Z,97909.44
2023-01-09T14:27:54.885Z,97907.47
2023-01-09T14:32:57.866Z,97917.91
2023-01-09T14:38:06.510Z,97913.72
2023-01-09T14:43:05.109Z,97937.31
2023-01-09T14:48:01.768Z,97946.34
2023-01-09T14:52:57.896Z,97960.06
2023-01-09T14:57:54.693Z,97962.19
2023-01-09T15:02:47.455Z,97975.41
2023-01-09T15:08:05.482Z,97988.53
2023-01-09T15:13:00.751Z,98001.56
2023-01-09T15:18:01.749Z,98003.78
2023-01-09T15:22:54.918Z,98016.22
2023-01-09T15:28:00.491Z,98019.97
2023-01-09T15:32:52.807Z,98046.97
2023-01-09T15:37:45.051Z,98052.59
2023-01-09T15:42:58.201Z,98067.38
2023-01-09T15:47:50.244Z,98078.94
2023-01-09T15:52:42.507Z,98086.22
2023-01-09T15:57:35.601Z,98079.75
2023-01-09T16:02:45.934Z,98094.31
2023-01-09T16:07:53.054Z,98086.69
2023-01-09T16:12:44.707Z,98083.38
2023-01-09T16:17:36.579Z,98100.22
2023-01-09T16:22:33.304Z,98104.69
2023-01-09T16:27:28.819Z,98098.91
2023-01-09T16:32:32.939Z,98116.59
2023-01-09T16:37:25.721Z,98122.44
2023-01-09T16:42:35.931Z,98138.13
2023-01-09T16:47:27.610Z,98145.13
2023-01-09T16:52:19.331Z,98159.06
2023-01-09T16:57:17.991Z,98169.97
2023-01-09T17:02:18.096Z,98186.13
2023-01-09T17:07:14.442Z,98180.75
2023-01-09T17:12:06.484Z,98182.00
2023-01-09T17:16:58.585Z,98184.47
2023-01-09T17:21:50.419Z,98192.56
2023-01-09T17:27:09.592Z,98191.75
2023-01-09T17:32:01.404Z,98192.41
2023-01-09T17:36:55.649Z,98201.19
2023-01-09T17:41:47.399Z,98220.91
2023-01-09T17:46:42.025Z,98225.09
2023-01-09T17:51:33.790Z,98235.47
2023-01-09T17:56:30.664Z,98235.69
2023-01-09T18:01:22.533Z,98246.69
2023-01-09T18:06:15.898Z,98253.53
2023-01-09T18:11:10.925Z,98266.63
2023-01-09T18:16:02.639Z,98277.22
2023-01-09T18:20:54.449Z,98277.66
2023-01-09T18:25:46.470Z,98295.25
2023-01-09T18:30:38.331Z,98295.03
2023-01-09T18:35:30.922Z,98314.22
2023-01-09T18:40:22.756Z,98324.31
2023-01-09T18:45:14.509Z,98333.22
2023-01-09T18:50:06.639Z,98341.91
2023-01-09T18:54:58.245Z,98345.41
2023-01-09T18:59:49.996Z,98357.81
2023-01-09T19:04:41.743Z,98358.19
2023-01-09T19:09:33.607Z,98360.06
2023-01-09T19:14:25.222Z,98365.31
2023-01-09T19:19:17.327Z,98391.81
2023-01-09T19:24:09.073Z,98413.84
2023-01-09T19:29:01.071Z,98413.50
2023-01-09T19:33:53.246Z,98429.69
2023-01-09T19:38:45.108Z,98432.59
2023-01-09T19:43:37.453Z,98450.41
2023-01-09T19:48:30.647Z,98460.31
2023-01-09T19:53:22.296Z,98464.66
2023-01-09T19:58:13.988Z,98456.00
2023-01-09T20:03:05.690Z,98468.44
2023-01-09T20:07:57.655Z,98480.66
2023-01-09T20:12:49.608Z,98488.53
2023-01-09T20:17:42.260Z,98491.44
2023-01-09T20:22:34.381Z,98505.50
2023-01-09T20:27:26.107Z,98500.13
2023-01-09T20:32:18.803Z,98504.06
2023-01-09T20:37:11.134Z,98513.00
2023-01-09T20:42:03.036Z,98514.25
2023-01-09T20:46:54.779Z,98513.84
2023-01-09T20:51:52.047Z,98524.81
2023-01-09T20:56:44.060Z,98547.13
2023-01-09T21:01:35.850Z,98551.53
2023-01-09T21:06:28.721Z,98565.38
2023-01-09T21:11:21.933Z,98576.56
2023-01-09T21:16:15.999Z,98580.69
2023-01-09T21:21:10.827Z,98593.75
2023-01-09T21:26:08.991Z,98597.66
2023-01-09T21:31:00.719Z,98617.72
2023-01-09T21:35:57.071Z,98618.34
2023-01-09T21:40:50.876Z,98629.72
2023-01-09T21:46:01.271Z,98640.88
2023-01-09T21:50:52.971Z,98650.19
2023-01-09T21:55:44.828Z,98649.97
2023-01-09T22:00:36.478Z,98654.53
2023-01-09T22:05:28.185Z,98664.00
2023-01-09T22:10:19.865Z,98674.56
2023-01-09T22:15:11.605Z,98672.50
2023-01-09T22:20:03.460Z,98702.69
2023-01-09T22:24:55.234Z,98704.13
2023-01-09T22:29:46.943Z,98703.31
2023-01-09T22:34:38.822Z,98709.91
2023-01-09T22:39:30.565Z,98705.59
2023-01-09T22:44:22.377Z,98705.16
2023-01-09T22:49:14.272Z,98701.66
2023-01-09T22:54:06.387Z,98702.88
2023-01-09T22:58:59.651Z,98731.41
2023-01-09T23:03:51.432Z,98729.53
2023-01-09T23:08:43.449Z,98738.81
2023-01-09T23:13:35.746Z,98746.88
2023-01-09T23:18:27.847Z,98752.47
2023-01-09T23:23:21.115Z,98748.91
2023-01-09T23:28:12.782Z,98742.53
2023-01-09T23:33:04.427Z,98758.22
2023-01-09T23:37:55.999Z,98760.47
2023-01-09T23:43:06.230Z,98759.66
2023-01-09T23:47:57.884Z,98767.72
2023-01-09T23:52:49.673Z,98767.09
2023-01-09T23:57:41.301Z,98748.50
